Airfield :
LOGIN :

Register | Disclaimer

   EN    FR    IT 

 










Legend :    VFR   Marginal VFR   IFR   Intensive IFR   Very Intensive IFR
Visi :
Ceiling :
>= 8 km
>= 3000ft
5 to 8 km
1000 to 3000 ft
1500m to 5 km
500 to 1000 ft
800 to 1500m
200 to 500 ft
< 800m
< 200 ft
Symbols :   Thunderstorms  Fog  Heavy snow  Heavy precipitations  Wind > 20 kt
SIGMETs :     Misc.  Thunderstorms  Icing  Turbulence  Mountain Waves  Volcanic Ashes






- Airport Elevation : 5600 ft
- IATA code : SMV


LSZS - Samedan

CURRENT METAR :
  • 161150Z 20012KT 9999 FEW033 BKN050 04/M00 Q1017 RMK K TL170

EXPIRED METARs :
  • 161120Z 21014KT 9999 FEW033 SCT050 03/M00 Q1017 RMK K TL170
  • 161050Z 22011KT 9999 FEW033 SCT050 03/M00 Q1018 RMK J TL170
  • 161020Z 21009KT 9999 FEW020 SCT032 03/M00 Q1018 RMK I TL170
  • 160950Z 22006KT 9999 FEW018 SCT050 03/M01 Q1018 RMK G TL170
  • 160920Z VRB01KT 9999 FEW029 SCT050 02/M01 Q1018 RMK F TL170

TAF TAF LSZS
Valid from the 16 at 12:00 until the 16 at 21:00 UTC


161125Z 1612/1621 22011KT 9999 FEW033 SCT050 TX04/1613Z
PROB40
TEMPO 1612/1618 21015G27KT
ATIS : +41 81 834 93 24



MET'MAP, your aeronautical weather chart ! - Copyright ORBIFLY December 2007 - Disclaimer

ORBIFLY MET'MAP TEAM :

Programming & Development : Alexandra Zaïnal
Concept & original design : Baudouin d'Aumeries
Assistance for programming : Marc-Olivier Méhu
Technical & hardware support : Manuel Goepfert

Contact : metmap@orbifly.com




SOURCES & CREDITS :

   NOAA